sensor_id;sensor_type;location;lat;lon;timestamp;P1;durP1;ratioP1;P2;durP2;ratioP2
44995;SDS011;30729;49.486;10.792;2023-04-15T00:01:23;9.23;;;4.47;;
44995;SDS011;30729;49.486;10.792;2023-04-15T00:03:50;9.48;;;4.60;;
44995;SDS011;30729;49.486;10.792;2023-04-15T00:06:16;9.35;;;4.85;;
44995;SDS011;30729;49.486;10.792;2023-04-15T00:08:41;7.25;;;4.63;;
44995;SDS011;30729;49.486;10.792;2023-04-15T00:11:07;8.20;;;4.95;;
44995;SDS011;30729;49.486;10.792;2023-04-15T00:13:32;9.27;;;4.57;;
44995;SDS011;30729;49.486;10.792;2023-04-15T00:16:00;9.57;;;4.78;;
44995;SDS011;30729;49.486;10.792;2023-04-15T00:18:26;9.05;;;4.90;;
44995;SDS011;30729;49.486;10.792;2023-04-15T00:20:51;8.45;;;4.47;;
44995;SDS011;30729;49.486;10.792;2023-04-15T00:23:16;7.50;;;4.45;;
44995;SDS011;30729;49.486;10.792;2023-04-15T00:25:41;7.50;;;4.10;;
44995;SDS011;30729;49.486;10.792;2023-04-15T00:28:07;8.55;;;4.47;;
44995;SDS011;30729;49.486;10.792;2023-04-15T00:30:32;7.60;;;3.95;;
44995;SDS011;30729;49.486;10.792;2023-04-15T00:32:57;6.38;;;3.80;;
44995;SDS011;30729;49.486;10.792;2023-04-15T00:35:22;7.57;;;3.72;;
44995;SDS011;30729;49.486;10.792;2023-04-15T00:37:48;6.97;;;3.90;;
44995;SDS011;30729;49.486;10.792;2023-04-15T00:40:13;8.02;;;4.00;;
44995;SDS011;30729;49.486;10.792;2023-04-15T00:42:41;8.23;;;4.10;;
44995;SDS011;30729;49.486;10.792;2023-04-15T00:45:06;7.90;;;4.20;;
44995;SDS011;30729;49.486;10.792;2023-04-15T00:47:32;7.57;;;3.58;;
44995;SDS011;30729;49.486;10.792;2023-04-15T00:49:57;7.85;;;4.05;;
44995;SDS011;30729;49.486;10.792;2023-04-15T00:52:23;8.60;;;3.90;;
44995;SDS011;30729;49.486;10.792;2023-04-15T00:54:48;6.95;;;3.65;;
44995;SDS011;30729;49.486;10.792;2023-04-15T00:57:15;8.02;;;4.15;;
44995;SDS011;30729;49.486;10.792;2023-04-15T00:59:40;7.47;;;4.05;;
44995;SDS011;30729;49.486;10.792;2023-04-15T01:02:05;7.00;;;3.85;;
44995;SDS011;30729;49.486;10.792;2023-04-15T01:04:31;9.50;;;3.70;;
44995;SDS011;30729;49.486;10.792;2023-04-15T01:06:56;7.13;;;4.40;;
44995;SDS011;30729;49.486;10.792;2023-04-15T01:09:21;8.70;;;4.45;;
44995;SDS011;30729;49.486;10.792;2023-04-15T01:11:46;9.00;;;4.25;;
44995;SDS011;30729;49.486;10.792;2023-04-15T01:14:12;7.25;;;3.75;;
44995;SDS011;30729;49.486;10.792;2023-04-15T01:16:37;7.45;;;4.05;;
44995;SDS011;30729;49.486;10.792;2023-04-15T01:19:04;7.88;;;3.67;;
44995;SDS011;30729;49.486;10.792;2023-04-15T01:21:31;9.77;;;4.35;;
44995;SDS011;30729;49.486;10.792;2023-04-15T01:23:57;6.82;;;3.38;;
44995;SDS011;30729;49.486;10.792;2023-04-15T01:26:22;8.32;;;3.70;;
44995;SDS011;30729;49.486;10.792;2023-04-15T01:28:47;9.07;;;4.25;;
44995;SDS011;30729;49.486;10.792;2023-04-15T01:31:14;7.07;;;3.72;;
44995;SDS011;30729;49.486;10.792;2023-04-15T01:33:39;7.85;;;3.97;;
44995;SDS011;30729;49.486;10.792;2023-04-15T01:36:05;6.80;;;4.00;;
44995;SDS011;30729;49.486;10.792;2023-04-15T01:38:32;9.90;;;4.35;;
44995;SDS011;30729;49.486;10.792;2023-04-15T01:40:57;8.32;;;3.88;;
44995;SDS011;30729;49.486;10.792;2023-04-15T01:43:23;6.65;;;3.70;;
44995;SDS011;30729;49.486;10.792;2023-04-15T01:45:48;7.15;;;4.07;;
44995;SDS011;30729;49.486;10.792;2023-04-15T01:48:13;7.18;;;3.58;;
44995;SDS011;30729;49.486;10.792;2023-04-15T01:50:39;7.60;;;4.00;;
44995;SDS011;30729;49.486;10.792;2023-04-15T01:53:04;7.00;;;3.85;;
44995;SDS011;30729;49.486;10.792;2023-04-15T01:55:29;7.35;;;4.00;;
44995;SDS011;30729;49.486;10.792;2023-04-15T01:57:54;10.13;;;4.40;;
44995;SDS011;30729;49.486;10.792;2023-04-15T02:00:20;7.18;;;4.00;;
44995;SDS011;30729;49.486;10.792;2023-04-15T02:02:46;7.43;;;4.15;;
44995;SDS011;30729;49.486;10.792;2023-04-15T02:05:11;7.35;;;4.30;;
44995;SDS011;30729;49.486;10.792;2023-04-15T02:07:36;7.50;;;4.23;;
44995;SDS011;30729;49.486;10.792;2023-04-15T02:10:01;9.70;;;4.60;;
44995;SDS011;30729;49.486;10.792;2023-04-15T02:12:28;8.75;;;4.65;;
44995;SDS011;30729;49.486;10.792;2023-04-15T02:14:53;8.02;;;4.50;;
44995;SDS011;30729;49.486;10.792;2023-04-15T02:17:18;8.43;;;4.68;;
44995;SDS011;30729;49.486;10.792;2023-04-15T02:20:09;9.05;;;4.40;;
44995;SDS011;30729;49.486;10.792;2023-04-15T02:22:34;8.15;;;4.07;;
44995;SDS011;30729;49.486;10.792;2023-04-15T02:24:59;8.27;;;4.50;;
44995;SDS011;30729;49.486;10.792;2023-04-15T02:27:25;10.45;;;4.90;;
44995;SDS011;30729;49.486;10.792;2023-04-15T02:29:50;8.48;;;4.22;;
44995;SDS011;30729;49.486;10.792;2023-04-15T02:32:16;8.30;;;4.57;;
44995;SDS011;30729;49.486;10.792;2023-04-15T02:34:41;7.67;;;4.50;;
44995;SDS011;30729;49.486;10.792;2023-04-15T02:37:10;10.15;;;5.57;;
44995;SDS011;30729;49.486;10.792;2023-04-15T02:39:35;10.18;;;4.68;;
44995;SDS011;30729;49.486;10.792;2023-04-15T02:42:00;8.15;;;4.22;;
44995;SDS011;30729;49.486;10.792;2023-04-15T02:44:26;9.13;;;4.88;;
44995;SDS011;30729;49.486;10.792;2023-04-15T02:46:52;9.30;;;4.63;;
44995;SDS011;30729;49.486;10.792;2023-04-15T02:49:18;9.57;;;4.88;;
44995;SDS011;30729;49.486;10.792;2023-04-15T02:51:43;8.60;;;4.38;;
44995;SDS011;30729;49.486;10.792;2023-04-15T02:54:13;7.40;;;4.53;;
44995;SDS011;30729;49.486;10.792;2023-04-15T02:56:38;9.50;;;5.28;;
44995;SDS011;30729;49.486;10.792;2023-04-15T02:59:03;8.63;;;4.35;;
44995;SDS011;30729;49.486;10.792;2023-04-15T03:01:29;8.90;;;4.67;;
44995;SDS011;30729;49.486;10.792;2023-04-15T03:03:54;10.98;;;5.07;;
44995;SDS011;30729;49.486;10.792;2023-04-15T03:06:19;10.02;;;4.95;;
44995;SDS011;30729;49.486;10.792;2023-04-15T03:08:44;8.80;;;4.80;;
44995;SDS011;30729;49.486;10.792;2023-04-15T03:11:09;12.07;;;4.90;;
44995;SDS011;30729;49.486;10.792;2023-04-15T03:13:35;9.13;;;4.72;;
44995;SDS011;30729;49.486;10.792;2023-04-15T03:16:00;10.43;;;4.82;;
44995;SDS011;30729;49.486;10.792;2023-04-15T03:18:25;9.65;;;5.00;;
44995;SDS011;30729;49.486;10.792;2023-04-15T03:20:50;9.23;;;5.40;;
44995;SDS011;30729;49.486;10.792;2023-04-15T03:23:16;9.18;;;5.20;;
44995;SDS011;30729;49.486;10.792;2023-04-15T03:25:41;11.27;;;5.13;;
44995;SDS011;30729;49.486;10.792;2023-04-15T03:28:06;10.30;;;5.75;;
44995;SDS011;30729;49.486;10.792;2023-04-15T03:30:31;10.07;;;5.10;;
44995;SDS011;30729;49.486;10.792;2023-04-15T03:32:56;9.13;;;5.28;;
44995;SDS011;30729;49.486;10.792;2023-04-15T03:35:21;12.85;;;5.95;;
44995;SDS011;30729;49.486;10.792;2023-04-15T03:37:47;10.43;;;5.70;;
44995;SDS011;30729;49.486;10.792;2023-04-15T03:40:13;10.30;;;5.93;;
44995;SDS011;30729;49.486;10.792;2023-04-15T03:42:38;9.95;;;5.38;;
44995;SDS011;30729;49.486;10.792;2023-04-15T03:45:03;11.45;;;6.45;;
44995;SDS011;30729;49.486;10.792;2023-04-15T03:47:28;9.32;;;5.50;;
44995;SDS011;30729;49.486;10.792;2023-04-15T03:49:54;10.10;;;5.95;;
44995;SDS011;30729;49.486;10.792;2023-04-15T03:52:19;10.60;;;5.47;;
44995;SDS011;30729;49.486;10.792;2023-04-15T03:54:44;10.95;;;5.88;;
44995;SDS011;30729;49.486;10.792;2023-04-15T03:57:09;9.75;;;5.28;;
44995;SDS011;30729;49.486;10.792;2023-04-15T03:59:35;10.07;;;5.82;;
44995;SDS011;30729;49.486;10.792;2023-04-15T04:02:00;10.82;;;5.78;;
44995;SDS011;30729;49.486;10.792;2023-04-15T04:04:25;10.18;;;6.18;;
44995;SDS011;30729;49.486;10.792;2023-04-15T04:06:50;10.88;;;6.25;;
44995;SDS011;30729;49.486;10.792;2023-04-15T04:09:15;13.15;;;6.25;;
44995;SDS011;30729;49.486;10.792;2023-04-15T04:11:40;9.63;;;5.82;;
44995;SDS011;30729;49.486;10.792;2023-04-15T04:14:06;11.70;;;6.63;;
44995;SDS011;30729;49.486;10.792;2023-04-15T04:16:31;11.48;;;5.93;;
44995;SDS011;30729;49.486;10.792;2023-04-15T04:18:56;9.77;;;5.90;;
44995;SDS011;30729;49.486;10.792;2023-04-15T04:21:21;10.73;;;6.13;;
44995;SDS011;30729;49.486;10.792;2023-04-15T04:23:46;12.20;;;6.47;;
44995;SDS011;30729;49.486;10.792;2023-04-15T04:26:11;11.25;;;6.32;;
44995;SDS011;30729;49.486;10.792;2023-04-15T04:28:37;11.43;;;5.97;;
44995;SDS011;30729;49.486;10.792;2023-04-15T04:31:04;14.55;;;6.70;;
44995;SDS011;30729;49.486;10.792;2023-04-15T04:33:30;11.10;;;6.13;;
44995;SDS011;30729;49.486;10.792;2023-04-15T04:35:55;12.10;;;6.95;;
44995;SDS011;30729;49.486;10.792;2023-04-15T04:38:20;11.85;;;6.35;;
44995;SDS011;30729;49.486;10.792;2023-04-15T04:40:46;15.13;;;6.95;;
44995;SDS011;30729;49.486;10.792;2023-04-15T04:43:11;12.13;;;6.40;;
44995;SDS011;30729;49.486;10.792;2023-04-15T04:45:37;10.57;;;6.30;;
44995;SDS011;30729;49.486;10.792;2023-04-15T04:48:02;10.70;;;6.22;;
44995;SDS011;30729;49.486;10.792;2023-04-15T04:50:30;12.10;;;7.35;;
44995;SDS011;30729;49.486;10.792;2023-04-15T04:52:56;14.07;;;7.88;;
44995;SDS011;30729;49.486;10.792;2023-04-15T04:55:21;11.32;;;7.13;;
44995;SDS011;30729;49.486;10.792;2023-04-15T04:57:46;13.23;;;7.57;;
44995;SDS011;30729;49.486;10.792;2023-04-15T05:00:11;15.18;;;7.45;;
44995;SDS011;30729;49.486;10.792;2023-04-15T05:02:36;14.65;;;7.40;;
44995;SDS011;30729;49.486;10.792;2023-04-15T05:05:02;14.68;;;8.02;;
44995;SDS011;30729;49.486;10.792;2023-04-15T05:07:27;15.60;;;8.80;;
44995;SDS011;30729;49.486;10.792;2023-04-15T05:09:52;16.13;;;10.57;;
44995;SDS011;30729;49.486;10.792;2023-04-15T05:12:17;12.47;;;7.73;;
44995;SDS011;30729;49.486;10.792;2023-04-15T05:14:43;11.20;;;7.18;;
44995;SDS011;30729;49.486;10.792;2023-04-15T05:17:08;14.00;;;7.72;;
44995;SDS011;30729;49.486;10.792;2023-04-15T05:19:33;12.57;;;7.25;;
44995;SDS011;30729;49.486;10.792;2023-04-15T05:21:59;12.55;;;7.88;;
44995;SDS011;30729;49.486;10.792;2023-04-15T05:24:24;11.82;;;7.22;;
44995;SDS011;30729;49.486;10.792;2023-04-15T05:26:49;14.45;;;7.68;;
44995;SDS011;30729;49.486;10.792;2023-04-15T05:29:15;13.10;;;7.93;;
44995;SDS011;30729;49.486;10.792;2023-04-15T05:31:40;12.75;;;8.25;;
44995;SDS011;30729;49.486;10.792;2023-04-15T05:34:05;13.07;;;7.57;;
44995;SDS011;30729;49.486;10.792;2023-04-15T05:36:31;14.10;;;8.45;;
44995;SDS011;30729;49.486;10.792;2023-04-15T05:38:56;11.60;;;7.32;;
44995;SDS011;30729;49.486;10.792;2023-04-15T05:41:21;12.63;;;7.78;;
44995;SDS011;30729;49.486;10.792;2023-04-15T05:43:46;12.75;;;7.55;;
44995;SDS011;30729;49.486;10.792;2023-04-15T05:46:11;14.23;;;7.88;;
44995;SDS011;30729;49.486;10.792;2023-04-15T05:48:37;13.57;;;8.10;;
44995;SDS011;30729;49.486;10.792;2023-04-15T05:51:02;13.52;;;8.18;;
44995;SDS011;30729;49.486;10.792;2023-04-15T05:53:27;13.60;;;7.32;;
44995;SDS011;30729;49.486;10.792;2023-04-15T05:55:52;14.60;;;8.10;;
44995;SDS011;30729;49.486;10.792;2023-04-15T05:58:17;14.05;;;7.70;;
44995;SDS011;30729;49.486;10.792;2023-04-15T06:00:42;12.80;;;7.93;;
44995;SDS011;30729;49.486;10.792;2023-04-15T06:03:08;11.50;;;7.30;;
44995;SDS011;30729;49.486;10.792;2023-04-15T06:05:34;18.67;;;8.48;;
44995;SDS011;30729;49.486;10.792;2023-04-15T06:07:59;12.93;;;7.28;;
44995;SDS011;30729;49.486;10.792;2023-04-15T06:10:25;12.80;;;8.20;;
44995;SDS011;30729;49.486;10.792;2023-04-15T06:12:51;13.30;;;7.73;;
44995;SDS011;30729;49.486;10.792;2023-04-15T06:15:17;11.57;;;7.68;;
44995;SDS011;30729;49.486;10.792;2023-04-15T06:17:42;11.57;;;7.68;;
44995;SDS011;30729;49.486;10.792;2023-04-15T06:20:07;12.10;;;7.90;;
44995;SDS011;30729;49.486;10.792;2023-04-15T06:22:32;12.50;;;7.45;;
44995;SDS011;30729;49.486;10.792;2023-04-15T06:24:57;12.30;;;7.90;;
44995;SDS011;30729;49.486;10.792;2023-04-15T06:27:23;13.15;;;8.02;;
44995;SDS011;30729;49.486;10.792;2023-04-15T06:29:48;13.38;;;7.43;;
44995;SDS011;30729;49.486;10.792;2023-04-15T06:32:13;13.20;;;7.10;;
44995;SDS011;30729;49.486;10.792;2023-04-15T06:34:38;12.90;;;7.30;;
44995;SDS011;30729;49.486;10.792;2023-04-15T06:37:03;11.65;;;7.05;;
44995;SDS011;30729;49.486;10.792;2023-04-15T06:39:29;12.40;;;7.18;;
44995;SDS011;30729;49.486;10.792;2023-04-15T06:41:54;10.83;;;6.73;;
44995;SDS011;30729;49.486;10.792;2023-04-15T06:44:20;11.18;;;6.80;;
44995;SDS011;30729;49.486;10.792;2023-04-15T06:46:45;12.05;;;7.10;;
44995;SDS011;30729;49.486;10.792;2023-04-15T06:49:11;11.18;;;6.57;;
44995;SDS011;30729;49.486;10.792;2023-04-15T06:51:36;11.93;;;5.93;;
44995;SDS011;30729;49.486;10.792;2023-04-15T06:54:01;12.45;;;7.18;;
44995;SDS011;30729;49.486;10.792;2023-04-15T06:56:29;14.10;;;7.38;;
44995;SDS011;30729;49.486;10.792;2023-04-15T06:58:54;11.25;;;6.63;;
44995;SDS011;30729;49.486;10.792;2023-04-15T07:01:21;11.75;;;6.35;;
44995;SDS011;30729;49.486;10.792;2023-04-15T07:03:46;11.75;;;6.63;;
44995;SDS011;30729;49.486;10.792;2023-04-15T07:06:11;10.75;;;5.88;;
44995;SDS011;30729;49.486;10.792;2023-04-15T07:08:37;13.18;;;6.18;;
44995;SDS011;30729;49.486;10.792;2023-04-15T07:11:02;10.63;;;6.18;;
44995;SDS011;30729;49.486;10.792;2023-04-15T07:13:29;11.43;;;6.15;;
44995;SDS011;30729;49.486;10.792;2023-04-15T07:15:55;11.10;;;5.85;;
44995;SDS011;30729;49.486;10.792;2023-04-15T07:18:45;10.82;;;6.00;;
44995;SDS011;30729;49.486;10.792;2023-04-15T07:21:35;12.15;;;5.97;;
44995;SDS011;30729;49.486;10.792;2023-04-15T07:24:00;9.82;;;5.82;;
44995;SDS011;30729;49.486;10.792;2023-04-15T07:26:26;10.88;;;5.85;;
44995;SDS011;30729;49.486;10.792;2023-04-15T07:28:51;10.18;;;5.53;;
44995;SDS011;30729;49.486;10.792;2023-04-15T07:31:16;9.57;;;5.57;;
44995;SDS011;30729;49.486;10.792;2023-04-15T07:33:41;11.23;;;6.07;;
44995;SDS011;30729;49.486;10.792;2023-04-15T07:36:06;9.65;;;5.25;;
44995;SDS011;30729;49.486;10.792;2023-04-15T07:38:32;9.07;;;4.97;;
44995;SDS011;30729;49.486;10.792;2023-04-15T07:40:57;11.00;;;5.93;;
44995;SDS011;30729;49.486;10.792;2023-04-15T07:43:22;9.82;;;5.35;;
44995;SDS011;30729;49.486;10.792;2023-04-15T07:45:48;9.13;;;4.97;;
44995;SDS011;30729;49.486;10.792;2023-04-15T07:48:13;11.70;;;6.32;;
44995;SDS011;30729;49.486;10.792;2023-04-15T07:50:38;11.27;;;6.15;;
44995;SDS011;30729;49.486;10.792;2023-04-15T07:53:03;14.45;;;8.18;;
44995;SDS011;30729;49.486;10.792;2023-04-15T07:55:29;9.55;;;5.85;;
44995;SDS011;30729;49.486;10.792;2023-04-15T07:57:55;13.13;;;6.13;;
44995;SDS011;30729;49.486;10.792;2023-04-15T08:00:20;8.88;;;5.63;;
44995;SDS011;30729;49.486;10.792;2023-04-15T08:02:45;9.15;;;5.30;;
44995;SDS011;30729;49.486;10.792;2023-04-15T08:05:12;11.25;;;5.85;;
44995;SDS011;30729;49.486;10.792;2023-04-15T08:07:37;10.63;;;5.40;;
44995;SDS011;30729;49.486;10.792;2023-04-15T08:10:03;10.07;;;5.22;;
44995;SDS011;30729;49.486;10.792;2023-04-15T08:12:28;11.30;;;5.10;;
44995;SDS011;30729;49.486;10.792;2023-04-15T08:14:54;9.27;;;5.38;;
44995;SDS011;30729;49.486;10.792;2023-04-15T08:17:19;12.07;;;7.07;;
44995;SDS011;30729;49.486;10.792;2023-04-15T08:19:44;11.02;;;5.28;;
44995;SDS011;30729;49.486;10.792;2023-04-15T08:22:09;9.75;;;5.25;;
44995;SDS011;30729;49.486;10.792;2023-04-15T08:24:36;10.93;;;5.35;;
44995;SDS011;30729;49.486;10.792;2023-04-15T08:27:01;9.38;;;5.70;;
44995;SDS011;30729;49.486;10.792;2023-04-15T08:29:28;12.07;;;5.47;;
44995;SDS011;30729;49.486;10.792;2023-04-15T08:31:53;10.02;;;5.13;;
44995;SDS011;30729;49.486;10.792;2023-04-15T08:34:19;10.20;;;5.38;;
44995;SDS011;30729;49.486;10.792;2023-04-15T08:36:44;14.53;;;5.23;;
44995;SDS011;30729;49.486;10.792;2023-04-15T08:39:09;8.13;;;4.60;;
44995;SDS011;30729;49.486;10.792;2023-04-15T08:41:47;9.20;;;3.90;;
44995;SDS011;30729;49.486;10.792;2023-04-15T08:44:15;8.70;;;4.43;;
44995;SDS011;30729;49.486;10.792;2023-04-15T08:46:41;8.98;;;4.55;;
44995;SDS011;30729;49.486;10.792;2023-04-15T08:49:08;9.85;;;4.55;;
44995;SDS011;30729;49.486;10.792;2023-04-15T08:51:34;8.65;;;3.97;;
44995;SDS011;30729;49.486;10.792;2023-04-15T08:53:59;7.43;;;3.60;;
44995;SDS011;30729;49.486;10.792;2023-04-15T08:56:25;6.90;;;3.92;;
44995;SDS011;30729;49.486;10.792;2023-04-15T08:58:52;5.70;;;3.20;;
44995;SDS011;30729;49.486;10.792;2023-04-15T09:01:17;7.55;;;3.90;;
44995;SDS011;30729;49.486;10.792;2023-04-15T09:03:42;10.40;;;3.72;;
44995;SDS011;30729;49.486;10.792;2023-04-15T09:06:08;6.50;;;2.80;;
44995;SDS011;30729;49.486;10.792;2023-04-15T09:08:33;6.10;;;3.33;;
44995;SDS011;30729;49.486;10.792;2023-04-15T09:11:03;5.13;;;2.50;;
44995;SDS011;30729;49.486;10.792;2023-04-15T09:13:29;6.15;;;2.70;;
44995;SDS011;30729;49.486;10.792;2023-04-15T09:15:54;4.50;;;1.75;;
44995;SDS011;30729;49.486;10.792;2023-04-15T09:18:28;3.22;;;1.67;;
44995;SDS011;30729;49.486;10.792;2023-04-15T09:20:53;3.35;;;1.52;;
44995;SDS011;30729;49.486;10.792;2023-04-15T09:23:18;2.92;;;1.42;;
44995;SDS011;30729;49.486;10.792;2023-04-15T09:25:44;3.05;;;1.63;;
44995;SDS011;30729;49.486;10.792;2023-04-15T09:28:10;2.60;;;1.30;;
44995;SDS011;30729;49.486;10.792;2023-04-15T09:30:35;3.42;;;1.60;;
44995;SDS011;30729;49.486;10.792;2023-04-15T09:33:01;3.95;;;1.30;;
44995;SDS011;30729;49.486;10.792;2023-04-15T09:35:28;3.50;;;1.45;;
44995;SDS011;30729;49.486;10.792;2023-04-15T09:38:03;2.22;;;1.35;;
44995;SDS011;30729;49.486;10.792;2023-04-15T09:40:36;2.25;;;1.35;;
44995;SDS011;30729;49.486;10.792;2023-04-15T09:43:01;2.63;;;1.25;;
44995;SDS011;30729;49.486;10.792;2023-04-15T09:45:27;2.88;;;1.45;;
44995;SDS011;30729;49.486;10.792;2023-04-15T09:47:53;2.05;;;1.10;;
44995;SDS011;30729;49.486;10.792;2023-04-15T09:50:18;2.90;;;1.60;;
44995;SDS011;30729;49.486;10.792;2023-04-15T09:52:44;3.95;;;2.08;;
44995;SDS011;30729;49.486;10.792;2023-04-15T09:55:10;3.22;;;1.40;;
44995;SDS011;30729;49.486;10.792;2023-04-15T09:57:36;3.95;;;1.95;;
44995;SDS011;30729;49.486;10.792;2023-04-15T10:00:02;5.15;;;1.60;;
44995;SDS011;30729;49.486;10.792;2023-04-15T10:02:28;3.10;;;1.45;;
44995;SDS011;30729;49.486;10.792;2023-04-15T10:04:54;3.10;;;1.60;;
44995;SDS011;30729;49.486;10.792;2023-04-15T10:07:19;4.13;;;2.13;;
44995;SDS011;30729;49.486;10.792;2023-04-15T10:09:47;5.38;;;1.92;;
44995;SDS011;30729;49.486;10.792;2023-04-15T10:12:12;2.80;;;1.58;;
44995;SDS011;30729;49.486;10.792;2023-04-15T10:14:38;3.88;;;1.52;;
44995;SDS011;30729;49.486;10.792;2023-04-15T10:17:04;3.92;;;1.60;;
44995;SDS011;30729;49.486;10.792;2023-04-15T10:19:33;4.03;;;1.67;;
44995;SDS011;30729;49.486;10.792;2023-04-15T10:22:00;3.25;;;1.63;;
44995;SDS011;30729;49.486;10.792;2023-04-15T10:24:26;3.80;;;1.55;;
44995;SDS011;30729;49.486;10.792;2023-04-15T10:26:51;3.35;;;1.50;;
44995;SDS011;30729;49.486;10.792;2023-04-15T10:29:17;4.13;;;1.50;;
44995;SDS011;30729;49.486;10.792;2023-04-15T10:31:42;4.28;;;2.05;;
44995;SDS011;30729;49.486;10.792;2023-04-15T10:34:08;5.53;;;1.65;;
44995;SDS011;30729;49.486;10.792;2023-04-15T10:36:33;2.80;;;1.50;;
44995;SDS011;30729;49.486;10.792;2023-04-15T10:38:58;2.85;;;1.33;;
44995;SDS011;30729;49.486;10.792;2023-04-15T10:41:24;3.65;;;1.25;;
44995;SDS011;30729;49.486;10.792;2023-04-15T10:46:23;2.95;;;1.33;;
44995;SDS011;30729;49.486;10.792;2023-04-15T10:48:58;5.15;;;1.70;;
44995;SDS011;30729;49.486;10.792;2023-04-15T10:51:30;3.75;;;1.52;;
44995;SDS011;30729;49.486;10.792;2023-04-15T10:53:56;4.28;;;1.60;;
44995;SDS011;30729;49.486;10.792;2023-04-15T10:56:22;4.80;;;1.58;;
44995;SDS011;30729;49.486;10.792;2023-04-15T10:58:47;5.68;;;1.48;;
44995;SDS011;30729;49.486;10.792;2023-04-15T11:01:12;3.97;;;1.40;;
44995;SDS011;30729;49.486;10.792;2023-04-15T11:03:38;3.17;;;1.70;;
44995;SDS011;30729;49.486;10.792;2023-04-15T11:06:04;5.45;;;1.67;;
44995;SDS011;30729;49.486;10.792;2023-04-15T11:11:14;3.33;;;1.30;;
44995;SDS011;30729;49.486;10.792;2023-04-15T11:13:46;3.15;;;1.30;;
44995;SDS011;30729;49.486;10.792;2023-04-15T11:16:12;2.75;;;1.33;;
44995;SDS011;30729;49.486;10.792;2023-04-15T11:18:37;2.58;;;1.40;;
44995;SDS011;30729;49.486;10.792;2023-04-15T11:21:03;2.83;;;1.30;;
44995;SDS011;30729;49.486;10.792;2023-04-15T11:25:54;2.47;;;1.35;;
44995;SDS011;30729;49.486;10.792;2023-04-15T11:28:22;2.60;;;1.70;;
44995;SDS011;30729;49.486;10.792;2023-04-15T11:30:49;4.18;;;1.60;;
44995;SDS011;30729;49.486;10.792;2023-04-15T11:33:14;2.47;;;1.27;;
44995;SDS011;30729;49.486;10.792;2023-04-15T11:35:40;3.63;;;1.90;;
44995;SDS011;30729;49.486;10.792;2023-04-15T11:38:09;4.57;;;1.55;;
44995;SDS011;30729;49.486;10.792;2023-04-15T11:40:35;2.10;;;1.33;;
44995;SDS011;30729;49.486;10.792;2023-04-15T11:43:08;2.45;;;1.50;;
44995;SDS011;30729;49.486;10.792;2023-04-15T11:45:34;3.60;;;1.50;;
44995;SDS011;30729;49.486;10.792;2023-04-15T11:48:10;4.80;;;1.77;;
44995;SDS011;30729;49.486;10.792;2023-04-15T11:50:35;4.72;;;1.80;;
44995;SDS011;30729;49.486;10.792;2023-04-15T11:53:02;3.40;;;1.60;;
44995;SDS011;30729;49.486;10.792;2023-04-15T11:58:19;3.03;;;1.40;;
44995;SDS011;30729;49.486;10.792;2023-04-15T12:00:52;3.17;;;1.48;;
44995;SDS011;30729;49.486;10.792;2023-04-15T12:03:22;3.65;;;1.65;;
44995;SDS011;30729;49.486;10.792;2023-04-15T12:11:15;3.60;;;1.50;;
44995;SDS011;30729;49.486;10.792;2023-04-15T12:13:47;4.90;;;1.95;;
44995;SDS011;30729;49.486;10.792;2023-04-15T12:16:16;2.65;;;1.38;;
44995;SDS011;30729;49.486;10.792;2023-04-15T12:18:44;3.65;;;1.98;;
44995;SDS011;30729;49.486;10.792;2023-04-15T12:21:09;3.78;;;1.80;;
44995;SDS011;30729;49.486;10.792;2023-04-15T12:23:39;3.13;;;1.90;;
44995;SDS011;30729;49.486;10.792;2023-04-15T12:26:04;2.95;;;1.83;;
44995;SDS011;30729;49.486;10.792;2023-04-15T12:28:30;3.28;;;1.58;;
44995;SDS011;30729;49.486;10.792;2023-04-15T12:30:56;3.80;;;1.90;;
44995;SDS011;30729;49.486;10.792;2023-04-15T12:33:21;3.42;;;1.80;;
44995;SDS011;30729;49.486;10.792;2023-04-15T12:35:46;3.13;;;1.77;;
44995;SDS011;30729;49.486;10.792;2023-04-15T12:38:12;4.25;;;2.10;;
44995;SDS011;30729;49.486;10.792;2023-04-15T12:40:37;4.37;;;2.60;;
44995;SDS011;30729;49.486;10.792;2023-04-15T12:43:02;3.90;;;2.17;;
44995;SDS011;30729;49.486;10.792;2023-04-15T12:45:27;3.67;;;1.40;;
44995;SDS011;30729;49.486;10.792;2023-04-15T12:47:52;5.40;;;1.70;;
44995;SDS011;30729;49.486;10.792;2023-04-15T12:50:17;4.00;;;1.67;;
44995;SDS011;30729;49.486;10.792;2023-04-15T12:52:43;5.00;;;1.97;;
44995;SDS011;30729;49.486;10.792;2023-04-15T12:55:08;3.45;;;1.73;;
44995;SDS011;30729;49.486;10.792;2023-04-15T12:57:33;6.55;;;3.00;;
44995;SDS011;30729;49.486;10.792;2023-04-15T12:59:58;9.02;;;3.58;;
44995;SDS011;30729;49.486;10.792;2023-04-15T13:02:23;5.15;;;2.40;;
44995;SDS011;30729;49.486;10.792;2023-04-15T13:04:50;6.03;;;2.72;;
44995;SDS011;30729;49.486;10.792;2023-04-15T13:07:16;4.38;;;2.40;;
44995;SDS011;30729;49.486;10.792;2023-04-15T13:09:41;4.78;;;1.85;;
44995;SDS011;30729;49.486;10.792;2023-04-15T13:12:06;5.38;;;2.15;;
44995;SDS011;30729;49.486;10.792;2023-04-15T13:14:31;4.95;;;2.42;;
44995;SDS011;30729;49.486;10.792;2023-04-15T13:16:57;4.45;;;2.22;;
44995;SDS011;30729;49.486;10.792;2023-04-15T13:19:22;4.18;;;2.20;;
44995;SDS011;30729;49.486;10.792;2023-04-15T13:21:48;4.63;;;2.38;;
44995;SDS011;30729;49.486;10.792;2023-04-15T13:24:13;5.00;;;2.40;;
44995;SDS011;30729;49.486;10.792;2023-04-15T13:26:38;5.47;;;2.75;;
44995;SDS011;30729;49.486;10.792;2023-04-15T13:29:03;5.83;;;2.67;;
44995;SDS011;30729;49.486;10.792;2023-04-15T13:31:28;5.72;;;2.70;;
44995;SDS011;30729;49.486;10.792;2023-04-15T13:33:53;8.07;;;2.80;;
44995;SDS011;30729;49.486;10.792;2023-04-15T13:36:18;4.47;;;2.40;;
44995;SDS011;30729;49.486;10.792;2023-04-15T13:38:44;4.22;;;2.45;;
44995;SDS011;30729;49.486;10.792;2023-04-15T13:41:09;4.22;;;2.08;;
44995;SDS011;30729;49.486;10.792;2023-04-15T13:43:34;5.28;;;2.40;;
44995;SDS011;30729;49.486;10.792;2023-04-15T13:45:59;5.85;;;3.08;;
44995;SDS011;30729;49.486;10.792;2023-04-15T13:48:25;4.95;;;2.35;;
44995;SDS011;30729;49.486;10.792;2023-04-15T13:50:50;5.35;;;2.67;;
44995;SDS011;30729;49.486;10.792;2023-04-15T13:53:15;4.38;;;1.85;;
44995;SDS011;30729;49.486;10.792;2023-04-15T13:55:40;3.60;;;1.85;;
44995;SDS011;30729;49.486;10.792;2023-04-15T13:58:07;2.92;;;1.50;;
44995;SDS011;30729;49.486;10.792;2023-04-15T14:00:32;3.85;;;1.80;;
44995;SDS011;30729;49.486;10.792;2023-04-15T14:02:57;2.92;;;1.55;;
44995;SDS011;30729;49.486;10.792;2023-04-15T14:05:22;2.63;;;1.57;;
44995;SDS011;30729;49.486;10.792;2023-04-15T14:07:47;4.03;;;2.00;;
44995;SDS011;30729;49.486;10.792;2023-04-15T14:10:12;5.10;;;2.27;;
44995;SDS011;30729;49.486;10.792;2023-04-15T14:12:37;3.20;;;1.95;;
44995;SDS011;30729;49.486;10.792;2023-04-15T14:15:03;3.28;;;1.80;;
44995;SDS011;30729;49.486;10.792;2023-04-15T14:17:28;4.05;;;1.92;;
44995;SDS011;30729;49.486;10.792;2023-04-15T14:19:54;3.72;;;2.03;;
44995;SDS011;30729;49.486;10.792;2023-04-15T14:22:19;4.50;;;2.10;;
44995;SDS011;30729;49.486;10.792;2023-04-15T14:24:44;5.25;;;2.25;;
44995;SDS011;30729;49.486;10.792;2023-04-15T14:27:09;5.77;;;2.30;;
44995;SDS011;30729;49.486;10.792;2023-04-15T14:29:36;4.68;;;2.60;;
44995;SDS011;30729;49.486;10.792;2023-04-15T14:32:01;4.13;;;2.25;;
44995;SDS011;30729;49.486;10.792;2023-04-15T14:34:26;5.07;;;2.38;;
44995;SDS011;30729;49.486;10.792;2023-04-15T14:36:51;6.83;;;2.80;;
44995;SDS011;30729;49.486;10.792;2023-04-15T14:39:17;8.40;;;2.90;;